createdAt,value
2023-04-03T00:00:25.860Z,1.20
2023-04-03T00:02:52.568Z,1.20
2023-04-03T00:05:19.172Z,1.08
2023-04-03T00:07:45.705Z,1.10
2023-04-03T00:10:12.792Z,1.20
2023-04-03T00:12:39.379Z,1.30
2023-04-03T00:15:06.385Z,1.10
2023-04-03T00:17:33.085Z,1.10
2023-04-03T00:19:59.884Z,1.08
2023-04-03T00:22:27.638Z,1.00
2023-04-03T00:24:54.206Z,1.20
2023-04-03T00:27:20.809Z,1.20
2023-04-03T00:29:47.400Z,1.25
2023-04-03T00:32:14.071Z,0.95
2023-04-03T00:34:40.675Z,1.17
2023-04-03T00:37:07.202Z,1.20
2023-04-03T00:39:33.745Z,1.20
2023-04-03T00:42:00.271Z,1.30
2023-04-03T00:44:36.096Z,1.10
2023-04-03T00:47:03.215Z,1.15
2023-04-03T00:49:29.748Z,1.10
2023-04-03T00:51:56.595Z,1.00
2023-04-03T00:54:23.087Z,1.10
2023-04-03T00:56:50.315Z,1.10
2023-04-03T00:59:22.223Z,1.20
2023-04-03T01:01:49.242Z,1.20
2023-04-03T01:04:32.278Z,1.10
2023-04-03T01:07:01.724Z,1.00
2023-04-03T01:09:28.841Z,1.10
2023-04-03T01:11:55.659Z,1.17
2023-04-03T01:14:22.427Z,1.20
2023-04-03T01:16:55.545Z,1.27
2023-04-03T01:19:22.455Z,1.20
2023-04-03T01:21:55.252Z,1.30
2023-04-03T01:24:31.107Z,1.00
2023-04-03T01:26:57.653Z,1.10
2023-04-03T01:29:24.214Z,1.00
2023-04-03T01:31:58.367Z,1.00
2023-04-03T01:34:25.375Z,1.20
2023-04-03T01:36:53.044Z,1.20
2023-04-03T01:39:20.984Z,1.02
2023-04-03T01:41:48.030Z,1.15
2023-04-03T01:44:21.294Z,1.00
2023-04-03T01:46:48.661Z,1.08
2023-04-03T01:49:15.338Z,1.25
2023-04-03T01:51:41.887Z,1.17
2023-04-03T01:54:08.720Z,1.15
2023-04-03T01:56:35.428Z,0.95
2023-04-03T01:59:02.034Z,1.13
2023-04-03T02:01:28.899Z,1.15
2023-04-03T02:03:55.667Z,1.20
2023-04-03T02:06:22.255Z,0.95
2023-04-03T02:08:48.804Z,1.00
2023-04-03T02:11:15.349Z,1.10
2023-04-03T02:13:41.915Z,1.10
2023-04-03T02:16:10.785Z,1.30
2023-04-03T02:18:37.498Z,1.17
2023-04-03T02:21:04.181Z,1.20
2023-04-03T02:23:30.864Z,1.02
2023-04-03T02:26:11.115Z,1.00
2023-04-03T02:28:37.908Z,1.08
2023-04-03T02:31:04.870Z,1.20
2023-04-03T02:33:31.846Z,1.17
2023-04-03T02:35:58.826Z,1.13
2023-04-03T02:38:25.389Z,1.00
2023-04-03T02:40:52.902Z,0.80
2023-04-03T02:43:19.499Z,0.85
2023-04-03T02:45:46.342Z,1.10
2023-04-03T02:48:13.306Z,1.20
2023-04-03T02:50:39.885Z,1.00
2023-04-03T02:53:06.464Z,1.10
2023-04-03T02:55:33.219Z,1.05
2023-04-03T02:57:59.891Z,1.02
2023-04-03T03:00:26.572Z,1.15
2023-04-03T03:02:53.211Z,1.00
2023-04-03T03:05:20.048Z,1.08
2023-04-03T03:07:46.719Z,1.00
2023-04-03T03:10:13.276Z,0.98
2023-04-03T03:12:39.794Z,1.15
2023-04-03T03:15:08.460Z,1.25
2023-04-03T03:17:35.316Z,1.10
2023-04-03T03:20:01.903Z,1.08
2023-04-03T03:22:31.081Z,1.00
2023-04-03T03:24:58.353Z,0.95
2023-04-03T03:27:25.616Z,1.00
2023-04-03T03:29:52.191Z,1.08
2023-04-03T03:32:18.973Z,0.88
2023-04-03T03:34:45.687Z,1.00
2023-04-03T03:37:12.234Z,1.08
2023-04-03T03:39:38.872Z,0.98
2023-04-03T03:42:05.485Z,1.10
2023-04-03T03:44:32.161Z,1.10
2023-04-03T03:46:58.894Z,1.10
2023-04-03T03:49:25.768Z,0.90
2023-04-03T03:51:52.739Z,1.10
2023-04-03T03:54:19.419Z,1.10
2023-04-03T03:56:46.127Z,0.98
2023-04-03T03:59:13.528Z,0.90
2023-04-03T04:01:40.944Z,1.00
2023-04-03T04:04:08.225Z,1.20
2023-04-03T04:06:34.949Z,1.00
2023-04-03T04:09:04.653Z,1.17
2023-04-03T04:11:31.362Z,1.00
2023-04-03T04:13:58.081Z,0.85
2023-04-03T04:16:27.508Z,1.00
2023-04-03T04:18:56.067Z,1.17
2023-04-03T04:21:23.841Z,0.90
2023-04-03T04:23:52.717Z,0.90
2023-04-03T04:26:21.162Z,0.98
2023-04-03T04:28:47.993Z,0.90
2023-04-03T04:31:15.349Z,0.85
2023-04-03T04:33:41.998Z,1.10
2023-04-03T04:36:11.781Z,1.05
2023-04-03T04:38:39.419Z,0.95
2023-04-03T04:41:06.055Z,0.95
2023-04-03T04:43:32.861Z,1.02
2023-04-03T04:46:04.149Z,1.00
2023-04-03T04:48:34.263Z,1.13
2023-04-03T04:51:01.537Z,1.00
2023-04-03T04:53:28.798Z,0.80
2023-04-03T04:55:55.596Z,1.00
2023-04-03T04:58:22.517Z,0.93
2023-04-03T05:00:49.167Z,1.00
2023-04-03T05:03:16.482Z,1.00
2023-04-03T05:05:43.990Z,0.82
2023-04-03T05:08:10.867Z,1.08
2023-04-03T05:10:41.751Z,1.17
2023-04-03T05:13:08.515Z,1.00
2023-04-03T05:15:35.503Z,1.10
2023-04-03T05:18:03.378Z,0.93
2023-04-03T05:20:30.186Z,0.95
2023-04-03T05:22:56.806Z,0.93
2023-04-03T05:25:23.361Z,1.00
2023-04-03T05:27:53.344Z,0.95
2023-04-03T05:30:20.117Z,0.90
2023-04-03T05:32:47.632Z,0.90
2023-04-03T05:35:30.065Z,0.87
2023-04-03T05:37:59.251Z,0.95
2023-04-03T05:40:26.592Z,1.05
2023-04-03T05:42:55.794Z,1.02
2023-04-03T05:45:24.705Z,1.10
2023-04-03T05:47:51.695Z,1.10
2023-04-03T05:50:18.367Z,1.00
2023-04-03T05:52:45.754Z,1.23
2023-04-03T05:55:13.436Z,1.00
2023-04-03T05:57:40.429Z,1.00
2023-04-03T06:00:08.195Z,0.90
2023-04-03T06:02:40.863Z,1.10
2023-04-03T06:05:12.523Z,1.10
2023-04-03T06:07:39.133Z,1.30
2023-04-03T06:10:06.461Z,1.10
2023-04-03T06:12:33.179Z,0.90
2023-04-03T06:14:59.824Z,1.10
2023-04-03T06:17:28.051Z,0.95
2023-04-03T06:19:54.775Z,0.90
2023-04-03T06:22:22.221Z,0.73
2023-04-03T06:24:48.798Z,1.00
2023-04-03T06:27:15.731Z,1.10
2023-04-03T06:29:42.394Z,0.95
2023-04-03T06:32:08.958Z,0.90
2023-04-03T06:34:36.348Z,0.93
2023-04-03T06:37:03.162Z,0.98
2023-04-03T06:39:30.308Z,0.88
2023-04-03T06:41:56.898Z,0.90
2023-04-03T06:44:35.531Z,0.98
2023-04-03T06:47:02.119Z,0.88
2023-04-03T06:49:29.848Z,1.02
2023-04-03T06:51:57.179Z,1.00
2023-04-03T06:54:24.001Z,0.90
2023-04-03T06:56:51.337Z,1.00
2023-04-03T06:59:18.057Z,0.98
2023-04-03T07:01:44.839Z,0.90
2023-04-03T07:04:11.807Z,0.90
2023-04-03T07:06:38.454Z,0.88
2023-04-03T07:09:05.052Z,0.77
2023-04-03T07:11:31.641Z,0.98
2023-04-03T07:13:58.591Z,0.93
2023-04-03T07:16:25.305Z,1.02
2023-04-03T07:18:52.089Z,1.00
2023-04-03T07:21:18.669Z,0.90
2023-04-03T07:23:46.053Z,0.90
2023-04-03T07:26:12.694Z,1.25
2023-04-03T07:28:41.136Z,1.00
2023-04-03T07:31:09.692Z,0.90
2023-04-03T07:33:36.768Z,1.00
2023-04-03T07:36:03.738Z,0.80
2023-04-03T07:38:30.401Z,0.73
2023-04-03T07:40:57.011Z,0.95
2023-04-03T07:43:25.704Z,1.10
2023-04-03T07:45:52.497Z,1.00
2023-04-03T07:48:20.143Z,1.10
2023-04-03T07:50:47.261Z,0.88
2023-04-03T07:53:13.921Z,1.00
2023-04-03T07:55:44.098Z,0.90
2023-04-03T07:58:15.666Z,0.80
2023-04-03T08:00:42.232Z,1.10
2023-04-03T08:03:11.371Z,0.98
2023-04-03T08:05:40.684Z,0.95
2023-04-03T08:08:07.889Z,1.00
2023-04-03T08:10:35.035Z,0.82
2023-04-03T08:13:02.005Z,1.20
2023-04-03T08:15:28.780Z,1.30
2023-04-03T08:17:55.840Z,0.85
2023-04-03T08:20:22.703Z,0.80
2023-04-03T08:22:49.376Z,1.20
2023-04-03T08:25:16.197Z,0.90
2023-04-03T08:27:42.777Z,0.85
2023-04-03T08:30:09.991Z,0.90
2023-04-03T08:32:37.459Z,0.90
2023-04-03T08:35:07.338Z,1.00
2023-04-03T08:37:37.047Z,0.88
2023-04-03T08:40:05.473Z,1.00
2023-04-03T08:42:45.680Z,1.10
2023-04-03T08:45:26.296Z,1.77
2023-04-03T08:47:57.527Z,1.67
2023-04-03T08:50:36.059Z,1.30
2023-04-03T08:53:03.100Z,1.20
2023-04-03T08:55:32.780Z,1.10
2023-04-03T08:58:03.280Z,1.00
2023-04-03T09:00:35.276Z,0.95
2023-04-03T09:03:01.955Z,1.00
2023-04-03T09:06:04.796Z,1.02
2023-04-03T09:08:33.007Z,1.00
2023-04-03T09:11:19.770Z,1.10
2023-04-03T09:13:57.878Z,1.17
2023-04-03T09:16:30.418Z,1.02
2023-04-03T09:19:18.790Z,1.10
2023-04-03T09:21:45.681Z,1.05
2023-04-03T09:24:14.598Z,1.10
2023-04-03T09:27:11.140Z,0.98
2023-04-03T09:29:40.512Z,1.10
2023-04-03T09:32:29.341Z,1.10
2023-04-03T09:34:59.695Z,1.00
2023-04-03T09:37:49.490Z,0.70
2023-04-03T09:40:36.719Z,0.98
2023-04-03T09:43:23.343Z,1.00
2023-04-03T09:45:50.976Z,1.30
2023-04-03T09:48:21.904Z,1.00
2023-04-03T09:51:11.812Z,0.95
2023-04-03T09:53:40.099Z,0.85
2023-04-03T09:56:18.904Z,1.10
2023-04-03T09:58:50.925Z,1.15
2023-04-03T10:01:33.802Z,1.00
2023-04-03T10:04:19.602Z,1.00
2023-04-03T10:06:53.813Z,1.30
2023-04-03T10:09:25.015Z,1.00
2023-04-03T10:12:13.245Z,0.88
2023-04-03T10:14:41.563Z,1.10
2023-04-03T10:17:35.739Z,1.13
2023-04-03T10:20:22.303Z,0.93
2023-04-03T10:23:12.132Z,1.23
2023-04-03T10:25:50.150Z,1.20
2023-04-03T10:28:33.164Z,0.80
2023-04-03T10:31:08.463Z,1.10
2023-04-03T10:33:54.361Z,1.00
2023-04-03T10:36:26.589Z,1.00
2023-04-03T10:39:04.359Z,0.80
2023-04-03T10:42:17.621Z,0.82
2023-04-03T10:44:56.585Z,0.90
2023-04-03T10:47:38.035Z,1.00
2023-04-03T10:50:14.257Z,1.00
2023-04-03T10:52:43.965Z,0.80
2023-04-03T10:55:16.652Z,0.80
2023-04-03T10:57:43.620Z,0.90
2023-04-03T11:00:21.153Z,0.90
2023-04-03T11:03:04.968Z,1.00
2023-04-03T11:05:44.844Z,0.90
2023-04-03T11:08:35.347Z,0.90
2023-04-03T11:11:07.021Z,0.90
2023-04-03T11:13:43.687Z,0.90
2023-04-03T11:16:10.485Z,0.90
2023-04-03T11:18:49.985Z,0.95
2023-04-03T11:21:42.062Z,1.00
2023-04-03T11:24:17.024Z,1.00
2023-04-03T11:26:43.630Z,1.00
2023-04-03T11:29:20.734Z,0.82
2023-04-03T11:32:19.468Z,1.02
2023-04-03T11:34:47.311Z,0.93
2023-04-03T11:37:24.252Z,0.95
2023-04-03T11:39:57.684Z,0.85
2023-04-03T11:42:59.882Z,0.80
2023-04-03T11:45:26.371Z,0.73
2023-04-03T11:47:57.398Z,0.90
2023-04-03T11:50:36.201Z,0.82
2023-04-03T11:53:07.363Z,1.02
2023-04-03T11:55:34.013Z,0.80
2023-04-03T11:58:00.679Z,1.00
2023-04-03T12:00:50.754Z,0.82
2023-04-03T12:03:26.707Z,0.90
2023-04-03T12:06:05.863Z,0.68
2023-04-03T12:08:44.485Z,0.80
2023-04-03T12:11:11.408Z,0.90
2023-04-03T12:13:50.411Z,0.90
2023-04-03T12:16:27.426Z,1.20
2023-04-03T12:18:54.087Z,1.05
2023-04-03T12:21:30.466Z,1.15
2023-04-03T12:24:13.727Z,1.10
2023-04-03T12:29:22.787Z,1.10
2023-04-03T12:32:04.897Z,1.17
2023-04-03T12:34:34.349Z,1.17
2023-04-03T12:37:13.720Z,1.23
2023-04-03T12:39:52.087Z,1.30
2023-04-03T12:42:43.664Z,1.20
2023-04-03T12:45:16.204Z,1.15
2023-04-03T12:47:43.601Z,1.40
2023-04-03T12:50:31.374Z,1.20
2023-04-03T12:53:03.841Z,1.55
2023-04-03T12:55:30.610Z,1.20
2023-04-03T12:57:57.279Z,1.73
2023-04-03T13:00:33.286Z,1.75
2023-04-03T13:03:00.925Z,4.10
2023-04-03T13:05:27.706Z,52.38
2023-04-03T13:07:59.149Z,27.45
2023-04-03T13:10:25.946Z,8.75
2023-04-03T13:12:57.860Z,12.15
2023-04-03T13:15:30.306Z,59.65
2023-04-03T13:17:57.595Z,27.35
2023-04-03T13:20:29.572Z,23.95
2023-04-03T13:23:06.662Z,21.25
2023-04-03T13:25:34.921Z,19.80
2023-04-03T13:28:12.654Z,17.92
2023-04-03T13:30:41.322Z,18.13
2023-04-03T13:33:21.548Z,17.73
2023-04-03T13:35:48.268Z,16.92
2023-04-03T13:38:17.809Z,16.42
2023-04-03T13:40:54.942Z,16.17
2023-04-03T13:43:26.429Z,16.63
2023-04-03T13:46:02.474Z,15.15
2023-04-03T13:48:35.391Z,15.77
2023-04-03T13:51:16.021Z,14.65
2023-04-03T13:53:45.285Z,15.00
2023-04-03T13:56:27.495Z,14.57
2023-04-03T13:59:06.776Z,13.93
2023-04-03T14:01:56.152Z,13.50
2023-04-03T14:04:28.850Z,13.48
2023-04-03T14:06:55.659Z,12.55
2023-04-03T14:09:22.945Z,11.95
2023-04-03T14:11:51.661Z,12.43
2023-04-03T14:14:23.626Z,12.82
2023-04-03T14:16:56.483Z,12.13
2023-04-03T14:21:51.720Z,12.07
2023-04-03T14:24:18.272Z,10.85
2023-04-03T14:26:45.003Z,9.88
2023-04-03T14:29:12.282Z,11.20
2023-04-03T14:31:39.222Z,8.52
2023-04-03T14:34:05.941Z,9.05
2023-04-03T14:36:32.894Z,7.93
2023-04-03T14:39:00.282Z,8.35
2023-04-03T14:41:30.098Z,7.55
2023-04-03T14:43:56.739Z,7.93
2023-04-03T14:46:48.230Z,8.18
2023-04-03T14:49:22.392Z,7.28
2023-04-03T14:51:48.992Z,7.70
2023-04-03T14:54:17.600Z,7.00
2023-04-03T14:56:45.662Z,7.32
2023-04-03T14:59:12.958Z,7.22
2023-04-03T15:01:42.395Z,6.50
2023-04-03T15:04:20.164Z,7.03
2023-04-03T15:06:47.327Z,6.38
2023-04-03T15:09:25.911Z,6.10
2023-04-03T15:11:53.075Z,7.32
2023-04-03T15:14:29.903Z,5.95
2023-04-03T15:17:07.210Z,6.45
2023-04-03T15:19:38.886Z,5.78
2023-04-03T15:22:05.591Z,5.93
2023-04-03T15:24:32.215Z,6.82
2023-04-03T15:26:58.787Z,5.20
2023-04-03T15:29:25.357Z,3.28
2023-04-03T15:31:54.572Z,3.00
2023-04-03T15:34:22.780Z,4.28
2023-04-03T15:36:51.089Z,4.22
2023-04-03T15:39:17.848Z,3.70
2023-04-03T15:41:45.211Z,3.75
2023-04-03T15:44:13.119Z,4.30
2023-04-03T15:46:39.923Z,3.90
2023-04-03T15:49:06.700Z,3.55
2023-04-03T15:51:33.343Z,4.25
2023-04-03T15:53:59.982Z,3.70
2023-04-03T15:56:26.580Z,3.90
2023-04-03T15:58:53.107Z,4.45
2023-04-03T16:01:19.762Z,5.63
2023-04-03T16:03:46.667Z,6.32
2023-04-03T16:06:14.789Z,3.83
2023-04-03T16:08:41.582Z,4.10
2023-04-03T16:11:08.220Z,4.15
2023-04-03T16:13:36.013Z,3.60
2023-04-03T16:16:02.876Z,4.05
2023-04-03T16:18:29.653Z,4.13
2023-04-03T16:20:56.459Z,4.05
2023-04-03T16:23:23.441Z,4.10
2023-04-03T16:25:50.760Z,3.97
2023-04-03T16:28:18.337Z,4.13
2023-04-03T16:30:45.717Z,4.50
2023-04-03T16:33:12.491Z,11.02
2023-04-03T16:35:39.590Z,17.05
2023-04-03T16:38:06.534Z,9.30
2023-04-03T16:40:34.765Z,12.23
2023-04-03T16:43:04.306Z,7.53
2023-04-03T16:45:31.091Z,6.47
2023-04-03T16:47:57.811Z,6.85
2023-04-03T16:50:24.571Z,6.53
2023-04-03T16:52:51.307Z,6.00
2023-04-03T16:55:18.153Z,6.75
2023-04-03T16:57:44.857Z,6.30
2023-04-03T17:00:12.035Z,6.30
2023-04-03T17:02:40.347Z,6.05
2023-04-03T17:05:07.714Z,6.07
2023-04-03T17:07:34.338Z,5.68
2023-04-03T17:10:01.094Z,5.75
2023-04-03T17:12:27.764Z,5.20
2023-04-03T17:14:54.289Z,4.90
2023-04-03T17:17:22.841Z,4.78
2023-04-03T17:19:49.611Z,2.70
2023-04-03T17:22:17.588Z,2.75
2023-04-03T17:24:44.867Z,2.78
2023-04-03T17:27:11.664Z,3.40
2023-04-03T17:29:38.357Z,3.35
2023-04-03T17:32:05.112Z,2.75
2023-04-03T17:34:33.580Z,3.75
2023-04-03T17:37:00.329Z,3.47
2023-04-03T17:39:27.083Z,3.85
2023-04-03T17:41:55.045Z,4.05
2023-04-03T17:44:22.174Z,3.47
2023-04-03T17:46:51.825Z,3.63
2023-04-03T17:49:22.500Z,3.75
2023-04-03T17:51:49.582Z,3.13
2023-04-03T17:54:16.970Z,3.40
2023-04-03T17:56:48.069Z,3.72
2023-04-03T17:59:16.598Z,3.30
2023-04-03T18:01:44.457Z,3.25
2023-04-03T18:04:11.261Z,3.42
2023-04-03T18:06:45.752Z,3.47
2023-04-03T18:09:17.751Z,3.40
2023-04-03T18:11:44.917Z,3.60
2023-04-03T18:14:12.105Z,3.63
2023-04-03T18:16:38.980Z,3.15
2023-04-03T18:19:21.928Z,3.35
2023-04-03T18:21:52.306Z,3.58
2023-04-03T18:24:19.604Z,3.55
2023-04-03T18:26:47.595Z,3.20
2023-04-03T18:29:14.299Z,3.17
2023-04-03T18:31:41.821Z,3.42
2023-04-03T18:34:08.466Z,3.10
2023-04-03T18:36:35.789Z,3.38
2023-04-03T18:39:03.814Z,3.15
2023-04-03T18:41:31.986Z,3.55
2023-04-03T18:43:59.632Z,2.85
2023-04-03T18:46:28.506Z,2.92
2023-04-03T18:48:56.296Z,3.10
2023-04-03T18:51:23.580Z,2.95
2023-04-03T18:53:50.501Z,2.70
2023-04-03T18:56:17.362Z,2.97
2023-04-03T18:58:44.207Z,3.40
2023-04-03T19:01:11.070Z,3.15
2023-04-03T19:03:38.007Z,3.28
2023-04-03T19:06:05.189Z,2.88
2023-04-03T19:08:31.860Z,2.92
2023-04-03T19:10:58.644Z,2.92
2023-04-03T19:13:31.043Z,2.90
2023-04-03T19:15:59.286Z,2.75
2023-04-03T19:18:27.673Z,2.50
2023-04-03T19:20:54.751Z,2.88
2023-04-03T19:23:26.113Z,3.00
2023-04-03T19:26:00.894Z,2.90
2023-04-03T19:28:27.674Z,2.60
2023-04-03T19:30:58.149Z,2.60
2023-04-03T19:33:25.130Z,3.00
2023-04-03T19:35:52.009Z,2.40
2023-04-03T19:38:18.744Z,2.60
2023-04-03T19:40:45.678Z,2.88
2023-04-03T19:43:13.216Z,2.60
2023-04-03T19:45:40.466Z,2.92
2023-04-03T19:48:07.462Z,2.65
2023-04-03T19:50:34.305Z,2.72
2023-04-03T19:53:01.768Z,2.33
2023-04-03T19:55:31.788Z,2.45
2023-04-03T19:57:59.693Z,2.80
2023-04-03T20:00:26.696Z,2.42
2023-04-03T20:02:53.489Z,2.75
2023-04-03T20:05:20.905Z,2.63
2023-04-03T20:07:48.640Z,2.13
2023-04-03T20:10:15.630Z,2.60
2023-04-03T20:12:42.775Z,2.28
2023-04-03T20:15:10.419Z,2.40
2023-04-03T20:17:37.111Z,2.78
2023-04-03T20:20:04.487Z,2.50
2023-04-03T20:22:32.302Z,2.42
2023-04-03T20:25:05.986Z,2.28
2023-04-03T20:27:33.757Z,2.53
2023-04-03T20:30:02.980Z,2.42
2023-04-03T20:32:30.457Z,2.10
2023-04-03T20:35:03.288Z,2.50
2023-04-03T20:37:30.547Z,2.20
2023-04-03T20:39:57.212Z,2.50
2023-04-03T20:42:23.775Z,2.70
2023-04-03T20:44:50.886Z,2.47
2023-04-03T20:47:17.588Z,2.20
2023-04-03T20:49:45.097Z,2.10
2023-04-03T20:52:11.836Z,2.40
2023-04-03T20:54:39.546Z,2.83
2023-04-03T20:57:06.209Z,2.10
2023-04-03T20:59:34.047Z,2.10
2023-04-03T21:02:00.925Z,2.40
2023-04-03T21:04:45.207Z,2.40
2023-04-03T21:07:49.458Z,2.30
2023-04-03T21:10:54.108Z,2.20
2023-04-03T21:13:57.947Z,2.30
2023-04-03T21:16:24.599Z,2.40
2023-04-03T21:18:59.344Z,2.40
2023-04-03T21:21:27.986Z,2.42
2023-04-03T21:23:54.887Z,2.28
2023-04-03T21:26:21.804Z,2.28
2023-04-03T21:28:50.268Z,2.25
2023-04-03T21:31:16.984Z,2.30
2023-04-03T21:33:43.728Z,2.40
2023-04-03T21:36:10.409Z,2.78
2023-04-03T21:38:37.491Z,2.80
2023-04-03T21:41:04.187Z,2.17
2023-04-03T21:43:30.913Z,2.22
2023-04-03T21:45:58.546Z,2.20
2023-04-03T21:48:25.827Z,2.40
2023-04-03T21:50:53.720Z,2.33
2023-04-03T21:53:23.654Z,2.25
2023-04-03T21:55:54.343Z,1.95
2023-04-03T21:58:21.241Z,2.08
2023-04-03T22:00:47.889Z,2.30
2023-04-03T22:03:19.989Z,2.20
2023-04-03T22:05:46.641Z,2.23
2023-04-03T22:08:13.916Z,2.10
2023-04-03T22:10:41.496Z,2.15
2023-04-03T22:13:08.413Z,2.50
2023-04-03T22:15:43.868Z,2.47
2023-04-03T22:18:10.938Z,2.00
2023-04-03T22:20:37.945Z,2.10
2023-04-03T22:23:05.812Z,2.17
2023-04-03T22:25:32.874Z,2.10
2023-04-03T22:27:59.437Z,1.95
2023-04-03T22:30:26.257Z,1.98
2023-04-03T22:32:52.913Z,2.10
2023-04-03T22:35:19.559Z,2.08
2023-04-03T22:37:46.107Z,1.90
2023-04-03T22:40:13.596Z,2.00
2023-04-03T22:42:40.210Z,2.08
2023-04-03T22:45:07.317Z,2.10
2023-04-03T22:47:33.852Z,2.08
2023-04-03T22:50:00.410Z,1.70
2023-04-03T22:52:26.968Z,2.00
2023-04-03T22:54:53.539Z,2.10
2023-04-03T22:57:20.490Z,1.83
2023-04-03T22:59:47.192Z,1.90
2023-04-03T23:02:13.742Z,1.80
2023-04-03T23:04:40.454Z,2.03
2023-04-03T23:07:07.227Z,2.08
2023-04-03T23:09:33.824Z,2.20
2023-04-03T23:12:00.377Z,1.77
2023-04-03T23:14:26.945Z,1.85
2023-04-03T23:16:53.545Z,1.98
2023-04-03T23:19:20.884Z,2.13
2023-04-03T23:21:48.003Z,1.88
2023-04-03T23:24:15.878Z,1.70
2023-04-03T23:26:42.425Z,1.80
2023-04-03T23:29:08.995Z,1.70
2023-04-03T23:31:35.610Z,1.80
2023-04-03T23:34:02.203Z,1.75
2023-04-03T23:36:28.823Z,1.80
2023-04-03T23:38:58.514Z,1.70
2023-04-03T23:41:25.171Z,1.70
2023-04-03T23:43:51.926Z,1.70
2023-04-03T23:46:19.718Z,1.85
2023-04-03T23:48:46.377Z,1.55
2023-04-03T23:51:12.945Z,1.67
2023-04-03T23:53:39.553Z,1.80
2023-04-03T23:56:11.368Z,1.60
2023-04-03T23:58:38.189Z,1.75
